Terminal Aerodrome Forecast
Issued by NWS Memphis, TN

Home | Current Version | Previous Version | Text Only | Print | Product List | Glossary On
Versions: 1 2 3 4 5 6 7 8 9 10 11 12 13 14 15 16 17 18 19
000
FTUS44 KMEG 241126
TAFMKL
TAF
KMKL 241126Z 2412/2512 14005KT P6SM BKN060
     FM241400 16012G20KT P6SM SCT050 BKN250
     FM250200 18013G22KT P6SM VCTS SCT025CB BKN050 BKN200
      TEMPO 2502/2504 3SM TSRA BKN025CB
     FM250400 18012G20KT P6SM -SHRA VCTS OVC035CB=

USA.gov is the U.S. government's official web portal to all federal, state and local government web resources and services.